createdAt,value
2022-11-03T00:00:32.724Z,97086.03
2022-11-03T00:03:29.567Z,97086.09
2022-11-03T00:06:26.409Z,97079.06
2022-11-03T00:09:24.267Z,97074.59
2022-11-03T00:12:21.095Z,97076.94
2022-11-03T00:15:17.911Z,97076.97
2022-11-03T00:18:14.746Z,97074.78
2022-11-03T00:21:13.782Z,97072.44
2022-11-03T00:24:11.464Z,97062.63
2022-11-03T00:27:08.307Z,97072.25
2022-11-03T00:30:05.696Z,97060.09
2022-11-03T00:33:02.633Z,97059.00
2022-11-03T00:36:01.585Z,97064.31
2022-11-03T00:38:58.800Z,97051.94
2022-11-03T00:41:55.623Z,97055.13
2022-11-03T00:44:52.427Z,97040.28
2022-11-03T00:48:07.702Z,97046.03
2022-11-03T00:51:14.787Z,97036.63
2022-11-03T00:54:11.755Z,97040.44
2022-11-03T00:57:08.627Z,97032.84
2022-11-03T01:00:06.770Z,97027.50
2022-11-03T01:03:03.910Z,97025.16
2022-11-03T01:06:20.040Z,97025.25
2022-11-03T01:09:20.784Z,97010.09
2022-11-03T01:12:19.393Z,97010.25
2022-11-03T01:15:16.334Z,97007.66
2022-11-03T01:18:13.175Z,97008.56
2022-11-03T01:21:10.035Z,97008.50
2022-11-03T01:24:07.228Z,96998.25
2022-11-03T01:27:04.249Z,97001.63
2022-11-03T01:30:01.115Z,96990.94
2022-11-03T01:32:57.940Z,96985.00
2022-11-03T01:35:54.766Z,96981.19
2022-11-03T01:38:51.758Z,96963.09
2022-11-03T01:41:51.216Z,96975.78
2022-11-03T01:44:49.547Z,96971.84
2022-11-03T01:47:47.096Z,96971.59
2022-11-03T01:50:47.497Z,96959.22
2022-11-03T01:53:48.610Z,96964.78
2022-11-03T01:56:46.918Z,96962.94
2022-11-03T01:59:46.428Z,96962.31
2022-11-03T02:02:43.911Z,96964.22
2022-11-03T02:05:44.405Z,96963.75
2022-11-03T02:09:13.728Z,96963.44
2022-11-03T02:12:10.891Z,96950.97
2022-11-03T02:15:14.660Z,96939.59
2022-11-03T02:18:12.762Z,96940.09
2022-11-03T02:21:38.394Z,96936.03
2022-11-03T02:24:58.910Z,96925.47
2022-11-03T02:27:55.890Z,96924.03
2022-11-03T02:31:11.073Z,96919.28
2022-11-03T02:34:24.179Z,96914.09
2022-11-03T02:37:27.401Z,96916.63
2022-11-03T02:40:37.054Z,96905.75
2022-11-03T02:43:34.378Z,96902.25
2022-11-03T02:46:32.821Z,96900.47
2022-11-03T02:49:29.741Z,96905.03
2022-11-03T02:52:44.036Z,96895.50
2022-11-03T02:55:56.592Z,96892.97
2022-11-03T02:59:04.873Z,96884.63
2022-11-03T03:02:15.826Z,96875.81
2022-11-03T03:05:16.212Z,96870.16
2022-11-03T03:08:14.894Z,96857.69
2022-11-03T03:11:13.454Z,96853.25
2022-11-03T03:14:17.573Z,96850.63
2022-11-03T03:17:32.045Z,96855.66
2022-11-03T03:20:50.619Z,96846.69
2022-11-03T03:24:18.865Z,96840.53
2022-11-03T03:27:20.103Z,96839.25
2022-11-03T03:30:18.705Z,96839.81
2022-11-03T03:33:17.961Z,96844.13
2022-11-03T03:36:20.032Z,96841.09
2022-11-03T03:39:19.716Z,96838.38
2022-11-03T03:42:17.784Z,96825.75
2022-11-03T03:45:16.130Z,96830.44
2022-11-03T03:48:13.708Z,96827.09
2022-11-03T03:51:13.128Z,96818.41
2022-11-03T03:54:10.096Z,96821.66
2022-11-03T03:57:11.400Z,96817.63
2022-11-03T04:00:13.101Z,96808.59
2022-11-03T04:03:23.041Z,96804.59
2022-11-03T04:06:19.868Z,96804.34
2022-11-03T04:09:16.698Z,96802.09
2022-11-03T04:12:32.730Z,96796.88
2022-11-03T04:15:49.252Z,96797.88
2022-11-03T04:19:04.658Z,96792.75
2022-11-03T04:22:16.361Z,96799.31
2022-11-03T04:25:13.257Z,96796.88
2022-11-03T04:28:14.300Z,96795.41
2022-11-03T04:31:14.460Z,96794.50
2022-11-03T04:34:13.186Z,96794.75
2022-11-03T04:37:13.174Z,96784.44
2022-11-03T04:40:17.955Z,96785.53
2022-11-03T04:43:18.408Z,96786.59
2022-11-03T04:46:27.838Z,96784.88
2022-11-03T04:49:25.253Z,96783.78
2022-11-03T04:52:22.966Z,96787.22
2022-11-03T04:55:20.856Z,96789.19
2022-11-03T04:58:29.981Z,96782.03
2022-11-03T05:01:28.753Z,96784.00
2022-11-03T05:04:25.736Z,96771.06
2022-11-03T05:07:32.975Z,96768.59
2022-11-03T05:10:29.855Z,96770.41
2022-11-03T05:13:28.851Z,96760.78
2022-11-03T05:16:25.813Z,96757.22
2022-11-03T05:19:40.101Z,96755.63
2022-11-03T05:22:37.551Z,96745.84
2022-11-03T05:25:52.583Z,96740.19
2022-11-03T05:28:55.535Z,96739.63
2022-11-03T05:31:55.688Z,96743.06
2022-11-03T05:34:54.782Z,96738.41
2022-11-03T05:37:51.761Z,96730.66
2022-11-03T05:40:54.082Z,96732.09
2022-11-03T05:44:01.808Z,96721.25
2022-11-03T05:47:01.921Z,96717.56
2022-11-03T05:50:33.239Z,96712.56
2022-11-03T05:53:38.560Z,96707.91
2022-11-03T05:56:35.597Z,96698.50
2022-11-03T05:59:32.466Z,96713.63
2022-11-03T06:02:42.583Z,96702.97
2022-11-03T06:05:41.115Z,96704.53
2022-11-03T06:08:40.294Z,96705.81
2022-11-03T06:11:41.650Z,96706.13
2022-11-03T06:14:38.735Z,96706.75
2022-11-03T06:17:37.815Z,96700.53
2022-11-03T06:20:35.256Z,96708.72
2022-11-03T06:23:35.346Z,96698.47
2022-11-03T06:26:32.172Z,96709.38
2022-11-03T06:29:33.412Z,96704.13
2022-11-03T06:32:32.207Z,96696.22
2022-11-03T06:35:29.127Z,96695.41
2022-11-03T06:38:30.038Z,96690.28
2022-11-03T06:41:30.943Z,96694.75
2022-11-03T06:44:29.130Z,96682.34
2022-11-03T06:47:29.128Z,96690.66
2022-11-03T06:50:32.694Z,96695.47
2022-11-03T06:53:34.330Z,96686.84
2022-11-03T06:56:36.956Z,96687.41
2022-11-03T06:59:33.817Z,96677.25
2022-11-03T07:03:08.149Z,96668.66
2022-11-03T07:06:11.279Z,96672.28
2022-11-03T07:09:21.106Z,96657.34
2022-11-03T07:12:18.908Z,96662.00
2022-11-03T07:15:32.421Z,96652.94
2022-11-03T07:18:35.618Z,96650.38
2022-11-03T07:21:41.114Z,96653.50
2022-11-03T07:24:42.052Z,96656.75
2022-11-03T07:27:40.230Z,96643.66
2022-11-03T07:30:37.856Z,96642.38
2022-11-03T07:33:34.815Z,96645.50
2022-11-03T07:36:32.287Z,96640.38
2022-11-03T07:39:37.411Z,96635.56
2022-11-03T07:42:34.250Z,96623.47
2022-11-03T07:45:51.472Z,96630.09
2022-11-03T07:49:03.239Z,96620.59
2022-11-03T07:52:00.620Z,96620.84
2022-11-03T07:54:59.176Z,96625.88
2022-11-03T07:57:56.028Z,96614.78
2022-11-03T08:00:58.931Z,96613.44
2022-11-03T08:04:08.261Z,96604.16
2022-11-03T08:07:05.106Z,96608.16
2022-11-03T08:10:01.926Z,96602.28
2022-11-03T08:12:59.083Z,96604.66
2022-11-03T08:15:56.264Z,96587.88
2022-11-03T08:18:53.148Z,96586.28
2022-11-03T08:21:50.117Z,96580.09
2022-11-03T08:24:46.947Z,96576.28
2022-11-03T08:27:43.780Z,96571.69
2022-11-03T08:30:41.015Z,96562.81
2022-11-03T08:33:37.878Z,96548.59
2022-11-03T08:36:34.890Z,96546.63
2022-11-03T08:39:31.740Z,96551.53
2022-11-03T08:42:28.633Z,96546.28
2022-11-03T08:45:25.488Z,96525.94
2022-11-03T08:48:27.225Z,96517.47
2022-11-03T08:51:24.557Z,96512.34
2022-11-03T08:54:21.372Z,96508.41
2022-11-03T08:57:18.235Z,96487.91
2022-11-03T09:00:16.975Z,96484.44
2022-11-03T09:03:14.391Z,96486.91
2022-11-03T09:06:11.478Z,96479.78
2022-11-03T09:12:25.171Z,96461.94
2022-11-03T09:15:22.202Z,96458.63
2022-11-03T09:18:19.085Z,96461.78
2022-11-03T09:21:16.039Z,96450.47
2022-11-03T09:24:12.919Z,96452.31
2022-11-03T09:27:10.244Z,96442.03
2022-11-03T09:30:13.189Z,96443.31
2022-11-03T09:33:10.672Z,96437.34
2022-11-03T09:36:08.057Z,96435.81
2022-11-03T09:39:05.074Z,96427.13
2022-11-03T09:42:03.859Z,96416.28
2022-11-03T09:45:01.868Z,96419.03
2022-11-03T09:47:59.120Z,96413.28
2022-11-03T09:50:57.732Z,96407.56
2022-11-03T09:53:58.941Z,96398.22
2022-11-03T09:57:05.433Z,96392.97
2022-11-03T10:00:08.121Z,96385.59
2022-11-03T10:03:05.735Z,96381.97
2022-11-03T10:06:03.669Z,96376.09
2022-11-03T10:09:00.575Z,96373.44
2022-11-03T10:11:57.451Z,96363.00
2022-11-03T10:14:54.982Z,96358.31
2022-11-03T10:17:53.929Z,96351.38
2022-11-03T10:20:50.763Z,96343.41
2022-11-03T10:23:47.673Z,96331.53
2022-11-03T10:26:50.605Z,96312.19
2022-11-03T10:30:11.671Z,96312.00
2022-11-03T10:33:40.596Z,96307.66
2022-11-03T10:36:37.679Z,96307.22
2022-11-03T10:39:34.665Z,96295.91
2022-11-03T10:42:35.956Z,96286.22
2022-11-03T10:45:33.004Z,96278.91
2022-11-03T10:48:30.421Z,96283.34
2022-11-03T10:51:30.910Z,96273.41
2022-11-03T10:54:36.176Z,96269.91
2022-11-03T10:57:33.066Z,96267.72
2022-11-03T11:00:31.713Z,96267.09
2022-11-03T11:03:28.710Z,96259.84
2022-11-03T11:06:29.580Z,96250.31
2022-11-03T11:09:28.409Z,96252.94
2022-11-03T11:12:25.839Z,96260.78
2022-11-03T11:15:44.470Z,96255.72
2022-11-03T11:18:41.498Z,96234.50
2022-11-03T11:21:38.537Z,96238.09
2022-11-03T11:24:44.365Z,96231.13
2022-11-03T11:27:41.234Z,96223.84
2022-11-03T11:30:37.956Z,96217.88
2022-11-03T11:33:34.856Z,96213.16
2022-11-03T11:36:31.789Z,96195.88
2022-11-03T11:39:28.712Z,96194.41
2022-11-03T11:46:26.781Z,96186.59
2022-11-03T11:49:23.729Z,96167.94
2022-11-03T11:52:20.654Z,96169.47
2022-11-03T11:55:32.666Z,96161.44
2022-11-03T11:58:50.264Z,96144.69
2022-11-03T12:01:54.086Z,96138.13
2022-11-03T12:05:01.250Z,96126.78
2022-11-03T12:07:59.752Z,96115.34
2022-11-03T12:11:03.517Z,96106.41
2022-11-03T12:14:00.398Z,96107.22
2022-11-03T12:16:59.731Z,96092.75
2022-11-03T12:19:56.673Z,96095.63
2022-11-03T12:22:53.515Z,96096.63
2022-11-03T12:25:50.359Z,96076.88
2022-11-03T12:28:47.295Z,96062.22
2022-11-03T12:31:44.253Z,96064.22
2022-11-03T12:34:41.776Z,96049.34
2022-11-03T12:37:38.702Z,96039.25
2022-11-03T12:40:35.549Z,96041.34
2022-11-03T12:43:34.448Z,96035.16
2022-11-03T12:46:31.575Z,96028.16
2022-11-03T12:49:28.473Z,96030.31
2022-11-03T12:52:25.278Z,96033.00
2022-11-03T12:55:22.167Z,96027.47
2022-11-03T12:58:19.042Z,96022.34
2022-11-03T13:01:16.384Z,96012.94
2022-11-03T13:04:13.352Z,96013.84
2022-11-03T13:07:10.196Z,95995.44
2022-11-03T13:10:07.623Z,95980.75
2022-11-03T13:13:04.673Z,95971.38
2022-11-03T13:16:01.803Z,95978.97
2022-11-03T13:18:58.711Z,95978.28
2022-11-03T13:21:55.531Z,95980.47
2022-11-03T13:24:52.478Z,95975.31
2022-11-03T13:27:53.772Z,95971.34
2022-11-03T13:30:50.667Z,95966.03
2022-11-03T13:33:47.531Z,95964.72
2022-11-03T13:36:44.413Z,95952.56
2022-11-03T13:39:41.288Z,95937.00
2022-11-03T13:42:38.532Z,95946.84
2022-11-03T13:45:35.532Z,95935.50
2022-11-03T13:51:49.702Z,95938.91
2022-11-03T14:01:20.881Z,95930.91
2022-11-03T14:07:34.631Z,95918.09
2022-11-03T14:10:31.548Z,95920.69
2022-11-03T14:13:28.387Z,95916.50
2022-11-03T14:16:25.246Z,95927.06
2022-11-03T14:19:29.408Z,95915.59
2022-11-03T14:22:30.621Z,95913.78
2022-11-03T14:25:27.517Z,95910.31
2022-11-03T14:28:26.274Z,95906.16
2022-11-03T14:31:23.279Z,95903.81
2022-11-03T14:34:20.222Z,95908.19
2022-11-03T14:37:17.438Z,95906.91
2022-11-03T14:40:34.398Z,95911.16
2022-11-03T14:43:34.974Z,95899.97
2022-11-03T14:46:32.397Z,95908.06
2022-11-03T14:49:30.851Z,95894.25
2022-11-03T14:52:27.717Z,95885.50
2022-11-03T14:55:24.566Z,95884.97
2022-11-03T14:58:21.425Z,95881.63
2022-11-03T15:01:19.262Z,95875.91
2022-11-03T15:04:16.238Z,95868.03
2022-11-03T15:07:13.063Z,95865.31
2022-11-03T15:10:10.007Z,95853.78
2022-11-03T15:13:07.296Z,95850.94
2022-11-03T15:16:05.462Z,95840.06
2022-11-03T15:19:03.742Z,95822.59
2022-11-03T15:22:00.555Z,95816.91
2022-11-03T15:25:12.591Z,95815.56
2022-11-03T15:28:11.554Z,95812.56
2022-11-03T15:31:08.857Z,95810.94
2022-11-03T15:34:08.671Z,95814.97
2022-11-03T15:37:05.882Z,95814.38
2022-11-03T15:40:02.940Z,95809.94
2022-11-03T15:43:02.960Z,95793.53
2022-11-03T15:46:00.118Z,95779.50
2022-11-03T15:48:57.720Z,95779.66
2022-11-03T15:51:54.762Z,95776.63
2022-11-03T15:54:51.723Z,95788.41
2022-11-03T15:57:50.645Z,95772.88
2022-11-03T16:00:47.573Z,95776.31
2022-11-03T16:03:44.466Z,95768.47
2022-11-03T16:07:08.965Z,95764.50
2022-11-03T16:09:58.911Z,95756.88
2022-11-03T16:12:55.758Z,95756.06
2022-11-03T16:15:54.475Z,95738.34
2022-11-03T16:18:51.684Z,95744.44
2022-11-03T16:21:48.533Z,95749.19
2022-11-03T16:24:47.084Z,95748.94
2022-11-03T16:27:44.002Z,95739.13
2022-11-03T16:30:40.850Z,95738.66
2022-11-03T16:33:37.681Z,95749.97
2022-11-03T16:36:34.598Z,95732.81
2022-11-03T16:39:31.490Z,95727.47
2022-11-03T16:42:29.231Z,95727.81
2022-11-03T16:45:27.597Z,95713.00
2022-11-03T16:48:24.665Z,95709.25
2022-11-03T16:51:22.050Z,95705.19
2022-11-03T16:54:18.926Z,95690.69
2022-11-03T16:57:15.773Z,95685.34
2022-11-03T17:00:17.169Z,95685.97
2022-11-03T17:03:14.112Z,95676.53
2022-11-03T17:06:10.988Z,95684.72
2022-11-03T17:09:12.308Z,95672.97
2022-11-03T17:12:09.165Z,95673.78
2022-11-03T17:15:08.866Z,95667.66
2022-11-03T17:18:06.081Z,95674.56
2022-11-03T17:21:03.166Z,95676.75
2022-11-03T17:24:01.017Z,95670.41
2022-11-03T17:27:07.938Z,95667.19
2022-11-03T17:30:11.276Z,95656.47
2022-11-03T17:33:15.419Z,95651.91
2022-11-03T17:36:12.485Z,95654.22
2022-11-03T17:39:14.970Z,95647.66
2022-11-03T17:42:27.717Z,95634.63
2022-11-03T17:45:26.304Z,95618.94
2022-11-03T17:48:24.322Z,95618.44
2022-11-03T17:51:21.263Z,95614.38
2022-11-03T17:54:18.435Z,95618.13
2022-11-03T17:57:20.835Z,95620.28
2022-11-03T18:00:20.938Z,95609.28
2022-11-03T18:03:17.769Z,95610.38
2022-11-03T18:06:19.991Z,95623.13
2022-11-03T18:09:19.206Z,95611.81
2022-11-03T18:12:36.544Z,95624.78
2022-11-03T18:15:36.955Z,95612.22
2022-11-03T18:18:46.049Z,95624.59
2022-11-03T18:21:46.230Z,95614.47
2022-11-03T18:24:43.049Z,95606.78
2022-11-03T18:27:39.984Z,95605.50
2022-11-03T18:30:38.794Z,95599.56
2022-11-03T18:33:36.377Z,95592.78
2022-11-03T18:36:34.245Z,95594.19
2022-11-03T18:39:31.423Z,95590.88
2022-11-03T18:42:37.152Z,95562.06
2022-11-03T18:45:42.112Z,95561.38
2022-11-03T18:48:38.943Z,95559.84
2022-11-03T18:51:41.335Z,95541.22
2022-11-03T18:54:47.052Z,95547.31
2022-11-03T18:57:45.002Z,95541.81
2022-11-03T19:00:42.183Z,95523.81
2022-11-03T19:03:41.039Z,95515.78
2022-11-03T19:06:40.076Z,95504.81
2022-11-03T19:09:37.186Z,95500.75
2022-11-03T19:12:38.770Z,95488.81
2022-11-03T19:15:36.635Z,95486.44
2022-11-03T19:18:36.047Z,95473.44
2022-11-03T19:21:32.969Z,95481.59
2022-11-03T19:24:29.786Z,95466.06
2022-11-03T19:27:44.315Z,95446.13
2022-11-03T19:30:41.789Z,95441.59
2022-11-03T19:33:46.726Z,95450.22
2022-11-03T19:36:44.710Z,95438.63
2022-11-03T19:39:41.668Z,95423.84
2022-11-03T19:42:38.539Z,95421.00
2022-11-03T19:45:35.422Z,95416.63
2022-11-03T19:48:39.078Z,95427.78
2022-11-03T19:51:38.685Z,95415.09
2022-11-03T19:54:35.509Z,95418.06
2022-11-03T19:57:35.048Z,95410.81
2022-11-03T20:00:32.033Z,95412.09
2022-11-03T20:03:28.935Z,95416.97
2022-11-03T20:06:34.082Z,95411.09
2022-11-03T20:09:31.545Z,95408.63
2022-11-03T20:12:33.216Z,95415.41
2022-11-03T20:15:30.426Z,95422.78
2022-11-03T20:18:27.338Z,95418.53
2022-11-03T20:21:26.159Z,95422.31
2022-11-03T20:24:25.710Z,95432.03
2022-11-03T20:27:22.582Z,95411.00
2022-11-03T20:30:21.935Z,95410.59
2022-11-03T20:33:22.322Z,95421.66
2022-11-03T20:36:20.603Z,95430.41
2022-11-03T20:39:18.571Z,95431.59
2022-11-03T20:42:23.589Z,95439.44
2022-11-03T20:45:23.556Z,95433.63
2022-11-03T20:48:20.559Z,95438.22
2022-11-03T20:51:20.345Z,95429.69
2022-11-03T20:54:20.853Z,95433.66
2022-11-03T20:57:17.701Z,95427.28
2022-11-03T21:00:27.010Z,95424.84
2022-11-03T21:03:37.986Z,95434.75
2022-11-03T21:06:50.242Z,95415.97
2022-11-03T21:09:47.104Z,95421.59
2022-11-03T21:12:44.727Z,95420.19
2022-11-03T21:16:23.090Z,95414.84
2022-11-03T21:19:44.046Z,95415.03
2022-11-03T21:22:52.357Z,95416.88
2022-11-03T21:25:50.003Z,95402.16
2022-11-03T21:28:46.841Z,95401.97
2022-11-03T21:31:43.671Z,95411.50
2022-11-03T21:34:41.267Z,95409.63
2022-11-03T21:37:38.103Z,95407.72
2022-11-03T21:40:35.161Z,95410.59
2022-11-03T21:44:10.185Z,95398.03
2022-11-03T21:47:07.209Z,95386.03
2022-11-03T21:50:04.357Z,95394.59
2022-11-03T21:53:01.203Z,95387.84
2022-11-03T21:55:58.390Z,95391.47
2022-11-03T21:58:55.246Z,95384.28
2022-11-03T22:01:54.926Z,95389.16
2022-11-03T22:04:54.656Z,95382.84
2022-11-03T22:07:51.561Z,95380.03
2022-11-03T22:10:48.405Z,95380.81
2022-11-03T22:13:45.661Z,95370.97
2022-11-03T22:16:44.315Z,95349.66
2022-11-03T22:19:59.652Z,95357.66
2022-11-03T22:23:19.582Z,95345.69
2022-11-03T22:26:35.333Z,95345.91
2022-11-03T22:29:50.396Z,95341.72
2022-11-03T22:32:53.895Z,95343.06
2022-11-03T22:36:09.067Z,95330.47
2022-11-03T22:39:24.238Z,95324.72
2022-11-03T22:42:39.532Z,95315.66
2022-11-03T22:45:52.563Z,95316.91
2022-11-03T22:48:49.376Z,95316.00
2022-11-03T22:51:46.222Z,95308.03
2022-11-03T22:54:43.109Z,95307.06
2022-11-03T22:57:39.939Z,95320.56
2022-11-03T23:00:36.768Z,95319.00
2022-11-03T23:03:35.835Z,95338.44
2022-11-03T23:06:38.665Z,95335.59
2022-11-03T23:09:35.558Z,95346.09
2022-11-03T23:12:32.497Z,95334.81
2022-11-03T23:15:32.047Z,95344.22
2022-11-03T23:18:47.565Z,95338.56
2022-11-03T23:21:47.747Z,95334.19
2022-11-03T23:24:59.998Z,95328.06
2022-11-03T23:27:56.833Z,95322.13
2022-11-03T23:30:53.662Z,95310.38
2022-11-03T23:33:50.632Z,95306.00
2022-11-03T23:36:47.576Z,95312.25
2022-11-03T23:39:44.505Z,95307.56
2022-11-03T23:42:41.321Z,95325.44
2022-11-03T23:45:56.840Z,95324.94
2022-11-03T23:48:54.099Z,95326.19
2022-11-03T23:51:51.215Z,95314.25
2022-11-03T23:54:48.069Z,95318.53
2022-11-03T23:58:03.103Z,95314.66
